createdAt,value
2018-10-16T00:02:26.170Z,11.70
2018-10-16T00:04:54.475Z,11.80
2018-10-16T00:07:22.834Z,11.80
2018-10-16T00:09:51.153Z,11.90
2018-10-16T00:12:19.437Z,11.80
2018-10-16T00:14:47.748Z,11.50
2018-10-16T00:17:16.044Z,11.30
2018-10-16T00:19:51.036Z,11.00
2018-10-16T00:22:19.636Z,10.90
2018-10-16T00:24:47.972Z,10.80
2018-10-16T00:27:16.321Z,10.80
2018-10-16T00:29:44.579Z,10.90
2018-10-16T00:32:12.888Z,11.00
2018-10-16T00:34:41.213Z,11.10
2018-10-16T00:37:09.515Z,11.00
2018-10-16T00:39:37.839Z,10.80
2018-10-16T00:42:06.229Z,10.80
2018-10-16T00:44:34.944Z,10.80
2018-10-16T00:47:03.302Z,10.80
2018-10-16T00:49:31.590Z,10.90
2018-10-16T00:52:00.082Z,11.00
2018-10-16T00:54:28.421Z,11.20
2018-10-16T00:56:56.705Z,11.20
2018-10-16T00:59:25.009Z,11.10
2018-10-16T01:01:53.348Z,11.00
2018-10-16T01:04:21.652Z,11.00
2018-10-16T01:06:50.555Z,11.00
2018-10-16T01:09:18.890Z,11.10
2018-10-16T01:11:47.260Z,11.10
2018-10-16T01:14:15.592Z,11.00
2018-10-16T01:16:43.881Z,10.70
2018-10-16T01:19:12.243Z,10.60
2018-10-16T01:21:40.599Z,10.50
2018-10-16T01:24:08.951Z,10.50
2018-10-16T01:26:37.244Z,10.80
2018-10-16T01:29:05.945Z,10.90
2018-10-16T01:31:34.257Z,11.00
2018-10-16T01:34:02.729Z,11.00
2018-10-16T01:36:31.064Z,11.00
2018-10-16T01:38:59.343Z,10.90
2018-10-16T01:41:27.689Z,10.90
2018-10-16T01:43:56.020Z,10.80
2018-10-16T01:46:24.359Z,10.60
2018-10-16T01:48:52.612Z,10.50
2018-10-16T01:51:20.991Z,10.40
2018-10-16T01:53:49.277Z,10.20
2018-10-16T01:56:17.597Z,10.00
2018-10-16T01:58:45.888Z,9.90
2018-10-16T02:01:14.322Z,9.80
2018-10-16T02:03:42.687Z,9.70
2018-10-16T02:06:11.026Z,9.60
2018-10-16T02:08:39.334Z,9.50
2018-10-16T02:11:07.660Z,9.60
2018-10-16T02:13:35.979Z,9.70
2018-10-16T02:16:04.350Z,9.60
2018-10-16T02:18:32.683Z,9.50
2018-10-16T02:21:00.963Z,9.40
2018-10-16T02:23:29.243Z,9.50
2018-10-16T02:25:57.625Z,9.60
2018-10-16T02:28:25.935Z,9.90
2018-10-16T02:30:54.266Z,10.10
2018-10-16T02:33:23.296Z,10.10
2018-10-16T02:35:51.666Z,10.10
2018-10-16T02:38:20.089Z,10.20
2018-10-16T02:40:48.480Z,10.20
2018-10-16T02:43:16.832Z,10.20
2018-10-16T02:45:45.355Z,10.00
2018-10-16T02:48:13.733Z,9.80
2018-10-16T02:50:42.059Z,9.90
2018-10-16T02:53:10.440Z,10.10
2018-10-16T02:55:38.751Z,10.10
2018-10-16T02:58:07.128Z,10.20
2018-10-16T03:00:35.488Z,10.20
2018-10-16T03:03:03.827Z,10.20
2018-10-16T03:05:32.146Z,10.30
2018-10-16T03:08:00.437Z,10.30
2018-10-16T03:10:28.784Z,10.30
2018-10-16T03:12:57.126Z,10.20
2018-10-16T03:15:25.828Z,10.00
2018-10-16T03:17:54.161Z,9.70
2018-10-16T03:20:22.504Z,9.60
2018-10-16T03:22:50.835Z,9.70
2018-10-16T03:25:19.567Z,9.70
2018-10-16T03:27:48.046Z,9.50
2018-10-16T03:30:16.425Z,9.40
2018-10-16T03:32:44.767Z,9.50
2018-10-16T03:35:13.134Z,9.60
2018-10-16T03:37:42.155Z,9.70
2018-10-16T03:40:11.502Z,9.60
2018-10-16T03:42:40.801Z,9.60
2018-10-16T03:45:10.827Z,9.60
2018-10-16T03:47:39.823Z,9.40
2018-10-16T03:50:08.479Z,9.30
2018-10-16T03:52:36.850Z,9.30
2018-10-16T03:55:05.411Z,9.40
2018-10-16T03:57:33.725Z,9.50
2018-10-16T04:00:02.015Z,9.40
2018-10-16T04:02:30.321Z,9.20
2018-10-16T04:04:58.650Z,9.10
2018-10-16T04:07:27.190Z,9.00
2018-10-16T04:09:55.492Z,9.10
2018-10-16T04:12:23.777Z,9.40
2018-10-16T04:14:52.625Z,9.50
2018-10-16T04:17:20.935Z,9.50
2018-10-16T04:19:49.223Z,9.60
2018-10-16T04:22:17.670Z,9.50
2018-10-16T04:24:45.875Z,9.50
2018-10-16T04:27:14.235Z,9.50
2018-10-16T04:29:42.539Z,9.20
2018-10-16T04:32:10.927Z,9.00
2018-10-16T04:34:39.231Z,9.00
2018-10-16T04:37:07.610Z,9.00
2018-10-16T04:39:36.170Z,9.00
2018-10-16T04:42:04.961Z,8.90
2018-10-16T04:44:33.313Z,8.90
2018-10-16T04:47:02.117Z,8.90
2018-10-16T04:49:30.389Z,8.70
2018-10-16T04:51:58.731Z,8.70
2018-10-16T04:54:27.125Z,8.80
2018-10-16T04:56:55.448Z,8.80
2018-10-16T04:59:23.820Z,8.70
2018-10-16T05:01:53.266Z,8.60
2018-10-16T05:04:21.539Z,8.60
2018-10-16T05:06:50.030Z,8.50
2018-10-16T05:09:18.387Z,8.60
2018-10-16T05:11:49.652Z,8.60
2018-10-16T05:14:17.985Z,8.60
2018-10-16T05:16:46.388Z,8.70
2018-10-16T05:19:14.946Z,8.80
2018-10-16T05:21:43.313Z,8.70
2018-10-16T05:24:12.048Z,8.60
2018-10-16T05:26:40.696Z,8.90
2018-10-16T05:29:09.745Z,9.00
2018-10-16T05:31:38.272Z,9.20
2018-10-16T05:34:07.272Z,8.90
2018-10-16T05:36:36.071Z,8.80
2018-10-16T05:39:06.260Z,8.50
2018-10-16T05:41:34.571Z,8.50
2018-10-16T05:44:02.947Z,8.60
2018-10-16T05:46:31.323Z,8.70
2018-10-16T05:49:00.073Z,8.80
2018-10-16T05:51:28.826Z,8.70
2018-10-16T05:53:57.255Z,8.70
2018-10-16T05:56:25.672Z,8.90
2018-10-16T05:58:53.943Z,9.00
2018-10-16T06:01:22.584Z,9.10
2018-10-16T06:03:50.930Z,9.00
2018-10-16T06:06:19.310Z,9.00
2018-10-16T06:08:47.696Z,9.00
2018-10-16T06:11:16.033Z,8.80
2018-10-16T06:13:44.368Z,8.60
2018-10-16T06:16:13.126Z,8.60
2018-10-16T06:18:47.935Z,8.50
2018-10-16T06:21:16.466Z,8.60
2018-10-16T06:23:44.834Z,8.60
2018-10-16T06:26:13.210Z,8.60
2018-10-16T06:28:41.497Z,8.70
2018-10-16T06:31:09.797Z,8.80
2018-10-16T06:33:38.173Z,8.80
2018-10-16T06:36:06.508Z,8.80
2018-10-16T06:38:34.787Z,8.70
2018-10-16T06:41:03.495Z,8.70
2018-10-16T06:43:31.681Z,8.70
2018-10-16T06:46:00.047Z,8.80
2018-10-16T06:48:28.566Z,9.00
2018-10-16T06:50:56.733Z,9.20
2018-10-16T06:53:25.508Z,9.30
2018-10-16T06:55:55.308Z,9.40
2018-10-16T06:58:23.695Z,9.50
2018-10-16T07:00:52.038Z,9.50
2018-10-16T07:03:20.397Z,9.50
2018-10-16T07:05:49.011Z,9.50
2018-10-16T07:08:17.731Z,9.40
2018-10-16T07:10:46.088Z,9.50
2018-10-16T07:13:14.413Z,9.50
2018-10-16T07:15:42.748Z,9.70
2018-10-16T07:18:11.120Z,9.60
2018-10-16T07:20:39.380Z,9.70
2018-10-16T07:23:07.656Z,9.80
2018-10-16T07:25:36.050Z,9.80
2018-10-16T07:28:04.452Z,9.80
2018-10-16T07:30:39.360Z,9.80
2018-10-16T07:33:07.705Z,9.70
2018-10-16T07:35:36.357Z,9.80
2018-10-16T07:38:04.963Z,10.00
2018-10-16T07:40:33.127Z,10.10
2018-10-16T07:43:01.805Z,10.20
2018-10-16T07:45:30.457Z,10.30
2018-10-16T07:47:58.862Z,10.40
2018-10-16T07:50:27.187Z,10.50
2018-10-16T07:52:55.555Z,10.60
2018-10-16T07:55:23.889Z,10.60
2018-10-16T07:57:56.118Z,10.60
2018-10-16T08:00:24.444Z,10.80
2018-10-16T08:02:52.777Z,10.90
2018-10-16T08:05:21.105Z,10.80
2018-10-16T08:07:49.466Z,10.90
2018-10-16T08:10:17.795Z,11.00
2018-10-16T08:12:46.129Z,11.10
2018-10-16T08:15:14.474Z,11.30
2018-10-16T08:17:42.795Z,11.30
2018-10-16T08:20:11.164Z,11.20
2018-10-16T08:22:39.497Z,11.30
2018-10-16T08:25:07.892Z,11.30
2018-10-16T08:27:36.351Z,11.40
2018-10-16T08:30:07.843Z,11.50
2018-10-16T08:32:36.077Z,11.50
2018-10-16T08:35:04.656Z,11.60
2018-10-16T08:39:52.489Z,11.60
2018-10-16T08:42:37.644Z,11.80
2018-10-16T08:45:17.343Z,11.80
2018-10-16T08:47:57.656Z,12.00
2018-10-16T08:50:38.454Z,12.00
2018-10-16T08:53:06.784Z,12.10
2018-10-16T08:55:35.808Z,12.10
2018-10-16T08:58:04.872Z,12.00
2018-10-16T09:00:33.986Z,12.10
2018-10-16T09:03:02.306Z,12.00
2018-10-16T09:05:30.871Z,12.30
2018-10-16T09:07:59.151Z,12.50
2018-10-16T09:10:27.868Z,12.40
2018-10-16T09:12:56.562Z,12.40
2018-10-16T09:15:24.994Z,12.50
2018-10-16T09:17:53.566Z,12.50
2018-10-16T09:20:21.941Z,12.60
2018-10-16T09:22:50.220Z,12.50
2018-10-16T09:25:18.540Z,12.70
2018-10-16T09:27:46.935Z,12.80
2018-10-16T09:30:15.492Z,13.00
2018-10-16T09:32:43.810Z,13.00
2018-10-16T09:35:12.903Z,12.90
2018-10-16T09:37:41.369Z,13.10
2018-10-16T09:40:11.514Z,13.20
2018-10-16T09:42:39.867Z,13.40
2018-10-16T09:45:09.111Z,13.50
2018-10-16T09:47:37.434Z,13.50
2018-10-16T09:50:06.410Z,13.30
2018-10-16T09:52:34.643Z,13.40
2018-10-16T09:55:02.957Z,13.90
2018-10-16T09:57:31.274Z,13.70
2018-10-16T09:59:59.649Z,13.90
2018-10-16T10:02:27.963Z,13.80
2018-10-16T10:04:56.292Z,13.80
2018-10-16T10:07:24.598Z,13.80
2018-10-16T10:09:53.363Z,13.80
2018-10-16T10:12:21.687Z,13.90
2018-10-16T10:14:50.228Z,14.30
2018-10-16T10:17:18.509Z,14.70
2018-10-16T10:19:47.121Z,14.80
2018-10-16T10:22:15.474Z,14.60
2018-10-16T10:24:43.849Z,14.70
2018-10-16T10:27:12.185Z,14.50
2018-10-16T10:29:40.611Z,14.60
2018-10-16T10:32:08.907Z,14.70
2018-10-16T10:34:37.611Z,14.80
2018-10-16T10:37:05.982Z,15.10
2018-10-16T10:39:34.728Z,15.10
2018-10-16T10:42:03.526Z,15.10
2018-10-16T10:44:31.865Z,15.20
2018-10-16T10:47:01.345Z,15.20
2018-10-16T10:49:29.651Z,15.30
2018-10-16T10:51:58.028Z,15.30
2018-10-16T10:54:26.359Z,15.40
2018-10-16T10:56:54.869Z,15.80
2018-10-16T10:59:23.193Z,16.00
2018-10-16T11:01:51.692Z,16.30
2018-10-16T11:04:20.069Z,16.60
2018-10-16T11:06:48.532Z,16.50
2018-10-16T11:09:17.199Z,16.30
2018-10-16T11:11:50.769Z,16.50
2018-10-16T11:14:19.138Z,16.70
2018-10-16T11:16:47.545Z,16.80
2018-10-16T11:19:16.116Z,17.00
2018-10-16T11:21:44.458Z,16.90
2018-10-16T11:24:12.864Z,16.90
2018-10-16T11:26:47.919Z,17.00
2018-10-16T11:29:16.288Z,17.20
2018-10-16T11:31:44.659Z,17.30
2018-10-16T11:34:13.104Z,17.60
2018-10-16T11:36:41.473Z,17.80
2018-10-16T11:39:12.548Z,17.80
2018-10-16T11:41:40.769Z,17.80
2018-10-16T11:44:12.629Z,17.80
2018-10-16T11:46:41.807Z,17.70
2018-10-16T11:49:10.312Z,17.90
2018-10-16T11:51:38.657Z,18.00
2018-10-16T11:54:07.648Z,18.00
2018-10-16T11:56:36.080Z,18.00
2018-10-16T11:59:04.472Z,18.10
2018-10-16T12:01:33.778Z,18.10
2018-10-16T12:04:02.255Z,18.10
2018-10-16T12:06:30.580Z,18.10
2018-10-16T12:08:59.129Z,18.40
2018-10-16T12:11:27.598Z,18.20
2018-10-16T12:13:56.237Z,18.10
2018-10-16T12:16:27.900Z,18.00
2018-10-16T12:19:00.040Z,18.00
2018-10-16T12:21:28.351Z,18.00
2018-10-16T12:23:56.821Z,18.10
2018-10-16T12:26:25.199Z,18.20
2018-10-16T12:28:53.919Z,18.20
2018-10-16T12:31:22.554Z,18.40
2018-10-16T12:33:51.368Z,18.40
2018-10-16T12:36:19.741Z,18.60
2018-10-16T12:38:48.115Z,18.50
2018-10-16T12:41:16.565Z,18.50
2018-10-16T12:43:45.224Z,18.50
2018-10-16T12:46:14.038Z,18.40
2018-10-16T12:48:43.864Z,18.60
2018-10-16T12:51:12.243Z,18.90
2018-10-16T12:53:40.607Z,19.10
2018-10-16T12:56:09.119Z,19.20
2018-10-16T12:58:37.512Z,19.30
2018-10-16T13:01:05.958Z,19.40
2018-10-16T13:03:34.436Z,19.40
2018-10-16T13:06:02.762Z,19.60
2018-10-16T13:08:31.127Z,19.60
2018-10-16T13:10:59.582Z,20.00
2018-10-16T13:13:27.972Z,20.10
2018-10-16T13:15:56.374Z,20.20
2018-10-16T13:18:24.796Z,20.30
2018-10-16T13:20:53.147Z,20.30
2018-10-16T13:23:21.523Z,20.10
2018-10-16T13:25:49.930Z,20.10
2018-10-16T13:28:18.754Z,20.10
2018-10-16T13:30:47.313Z,20.00
2018-10-16T13:33:15.696Z,20.20
2018-10-16T13:35:44.084Z,20.30
2018-10-16T13:38:12.474Z,20.20
2018-10-16T13:40:41.074Z,20.20
2018-10-16T13:43:09.463Z,20.10
2018-10-16T13:45:37.855Z,20.30
2018-10-16T13:48:06.479Z,20.50
2018-10-16T13:50:34.913Z,20.70
2018-10-16T13:53:03.273Z,20.90
2018-10-16T13:55:31.591Z,21.10
2018-10-16T13:57:59.999Z,21.30
2018-10-16T14:00:28.425Z,21.50
2018-10-16T14:02:56.822Z,21.60
2018-10-16T14:05:25.291Z,21.80
2018-10-16T14:07:53.726Z,21.90
2018-10-16T14:10:22.443Z,21.60
2018-10-16T14:12:50.995Z,21.40
2018-10-16T14:15:19.409Z,21.60
2018-10-16T14:17:47.773Z,21.60
2018-10-16T14:20:16.159Z,21.50
2018-10-16T14:22:44.719Z,21.00
2018-10-16T14:25:14.384Z,20.90
2018-10-16T14:27:43.994Z,21.00
2018-10-16T14:30:13.632Z,20.90
2018-10-16T14:32:43.712Z,20.90
2018-10-16T14:35:12.543Z,20.90
2018-10-16T14:37:41.034Z,20.90
2018-10-16T14:40:11.302Z,21.10
2018-10-16T14:42:39.950Z,21.20
2018-10-16T14:45:09.473Z,21.30
2018-10-16T14:47:37.834Z,21.30
2018-10-16T14:50:06.624Z,21.30
2018-10-16T14:52:34.928Z,21.40
2018-10-16T14:55:03.689Z,21.50
2018-10-16T14:57:32.062Z,21.50
2018-10-16T15:00:00.522Z,21.60
2018-10-16T15:02:28.879Z,21.50
2018-10-16T15:04:57.895Z,21.50
2018-10-16T15:07:26.289Z,21.60
2018-10-16T15:09:54.646Z,21.40
2018-10-16T15:12:28.345Z,21.30
2018-10-16T15:14:56.657Z,21.10
2018-10-16T15:17:25.128Z,21.10
2018-10-16T15:19:54.252Z,21.00
2018-10-16T15:22:22.654Z,20.90
2018-10-16T15:24:50.961Z,20.80
2018-10-16T15:27:20.067Z,20.80
2018-10-16T15:29:48.438Z,20.70
2018-10-16T15:32:16.926Z,20.70
2018-10-16T15:34:45.600Z,20.60
2018-10-16T15:37:14.052Z,20.50
2018-10-16T15:39:42.431Z,20.40
2018-10-16T15:42:10.772Z,20.40
2018-10-16T15:44:39.238Z,20.40
2018-10-16T15:47:08.792Z,20.40
2018-10-16T15:49:37.193Z,20.20
2018-10-16T15:52:06.479Z,20.10
2018-10-16T15:54:34.813Z,20.10
2018-10-16T15:57:03.195Z,20.00
2018-10-16T15:59:31.809Z,19.80
2018-10-16T16:02:00.191Z,19.70
2018-10-16T16:04:28.419Z,19.40
2018-10-16T16:06:56.864Z,19.30
2018-10-16T16:09:25.216Z,19.20
2018-10-16T16:11:53.555Z,19.20
2018-10-16T16:14:22.394Z,19.20
2018-10-16T16:16:52.086Z,19.10
2018-10-16T16:19:20.562Z,19.00
2018-10-16T16:21:49.000Z,18.80
2018-10-16T16:24:17.324Z,18.70
2018-10-16T16:26:45.664Z,18.60
2018-10-16T16:29:14.049Z,18.50
2018-10-16T16:31:42.420Z,18.40
2018-10-16T16:34:11.095Z,18.40
2018-10-16T16:36:39.414Z,18.30
2018-10-16T16:39:09.663Z,18.20
2018-10-16T16:41:38.267Z,18.10
2018-10-16T16:44:06.693Z,18.00
2018-10-16T16:46:34.932Z,17.80
2018-10-16T16:49:03.311Z,17.80
2018-10-16T16:51:31.755Z,17.70
2018-10-16T16:54:00.376Z,17.70
2018-10-16T16:56:28.930Z,17.50
2018-10-16T16:58:57.324Z,17.40
2018-10-16T17:01:25.805Z,17.30
2018-10-16T17:03:54.185Z,17.20
2018-10-16T17:06:22.550Z,17.10
2018-10-16T17:08:51.252Z,17.10
2018-10-16T17:11:20.019Z,17.00
2018-10-16T17:13:48.583Z,17.10
2018-10-16T17:16:16.936Z,16.90
2018-10-16T17:18:45.263Z,16.80
2018-10-16T17:21:13.698Z,16.80
2018-10-16T17:23:42.209Z,16.70
2018-10-16T17:26:10.938Z,16.70
2018-10-16T17:28:39.265Z,16.70
2018-10-16T17:31:07.672Z,16.70
2018-10-16T17:33:36.090Z,16.50
2018-10-16T17:36:04.784Z,16.40
2018-10-16T17:38:33.327Z,16.40
2018-10-16T17:41:01.908Z,16.30
2018-10-16T17:43:30.569Z,16.20
2018-10-16T17:45:58.913Z,16.20
2018-10-16T17:48:27.599Z,16.20
2018-10-16T17:50:56.049Z,16.00
2018-10-16T17:53:24.425Z,16.00
2018-10-16T17:55:52.782Z,15.80
2018-10-16T17:58:21.112Z,15.70
2018-10-16T18:00:49.521Z,15.60
2018-10-16T18:03:17.895Z,15.50
2018-10-16T18:05:46.239Z,15.40
2018-10-16T18:08:14.656Z,15.50
2018-10-16T18:10:43.373Z,15.40
2018-10-16T18:13:12.115Z,15.30
2018-10-16T18:15:40.539Z,15.10
2018-10-16T18:18:09.401Z,15.10
2018-10-16T18:20:37.812Z,15.10
2018-10-16T18:23:06.227Z,15.10
2018-10-16T18:25:34.565Z,15.10
2018-10-16T18:28:02.919Z,15.00
2018-10-16T18:30:31.359Z,14.80
2018-10-16T18:32:59.753Z,14.60
2018-10-16T18:35:28.448Z,14.60
2018-10-16T18:37:56.874Z,14.50
2018-10-16T18:40:25.426Z,14.40
2018-10-16T18:42:53.881Z,14.30
2018-10-16T18:45:22.344Z,14.20
2018-10-16T18:47:50.712Z,14.10
2018-10-16T18:50:19.184Z,14.10
2018-10-16T18:52:47.598Z,14.10
2018-10-16T18:55:15.968Z,14.20
2018-10-16T18:57:44.607Z,14.20
2018-10-16T19:00:14.430Z,14.00
2018-10-16T19:02:42.962Z,13.90
2018-10-16T19:05:11.291Z,13.80
2018-10-16T19:07:40.139Z,13.90
2018-10-16T19:10:08.792Z,14.00
2018-10-16T19:12:38.793Z,13.80
2018-10-16T19:15:07.972Z,13.70
2018-10-16T19:17:36.520Z,13.80
2018-10-16T19:20:05.836Z,13.80
2018-10-16T19:22:34.081Z,13.90
2018-10-16T19:25:03.399Z,13.80
2018-10-16T19:27:31.839Z,13.70
2018-10-16T19:30:00.228Z,13.60
2018-10-16T19:32:28.628Z,13.70
2018-10-16T19:34:57.192Z,13.60
2018-10-16T19:37:25.684Z,13.80
2018-10-16T19:39:54.020Z,13.90
2018-10-16T19:42:22.828Z,13.90
2018-10-16T19:44:51.261Z,13.90
2018-10-16T19:47:19.633Z,13.90
2018-10-16T19:49:47.991Z,13.90
2018-10-16T19:52:16.379Z,13.80
2018-10-16T19:54:44.733Z,13.60
2018-10-16T19:57:13.226Z,13.60
2018-10-16T19:59:41.546Z,13.60
2018-10-16T20:02:09.890Z,13.60
2018-10-16T20:04:38.813Z,13.40
2018-10-16T20:07:07.255Z,13.30
2018-10-16T20:09:35.576Z,13.30
2018-10-16T20:12:04.366Z,13.10
2018-10-16T20:14:32.765Z,13.00
2018-10-16T20:17:07.388Z,12.90
2018-10-16T20:19:36.187Z,12.80
2018-10-16T20:22:04.528Z,12.70
2018-10-16T20:24:32.899Z,12.80
2018-10-16T20:27:01.256Z,12.90
2018-10-16T20:29:29.624Z,12.80
2018-10-16T20:31:58.012Z,12.70
2018-10-16T20:34:26.885Z,12.60
2018-10-16T20:36:56.000Z,12.60
2018-10-16T20:39:24.312Z,12.60
2018-10-16T20:41:52.748Z,12.60
2018-10-16T20:44:21.058Z,12.40
2018-10-16T20:46:49.355Z,12.30
2018-10-16T20:49:17.670Z,12.20
2018-10-16T20:51:46.552Z,12.20
2018-10-16T20:54:14.920Z,12.30
2018-10-16T20:56:43.661Z,12.40
2018-10-16T20:59:12.024Z,12.30
2018-10-16T21:01:40.506Z,12.20
2018-10-16T21:04:08.884Z,12.00
2018-10-16T21:06:37.404Z,12.00
2018-10-16T21:09:06.879Z,12.10
2018-10-16T21:11:35.207Z,12.00
2018-10-16T21:14:03.916Z,12.10
2018-10-16T21:16:32.258Z,11.90
2018-10-16T21:19:01.754Z,11.80
2018-10-16T21:21:30.044Z,11.70
2018-10-16T21:23:58.379Z,11.80
2018-10-16T21:26:27.111Z,11.70
2018-10-16T21:28:55.437Z,11.80
2018-10-16T21:31:24.327Z,12.10
2018-10-16T21:33:52.653Z,12.10
2018-10-16T21:36:20.992Z,11.90
2018-10-16T21:38:49.323Z,11.90
2018-10-16T21:41:18.365Z,11.80
2018-10-16T21:43:46.935Z,11.90
2018-10-16T21:46:15.242Z,11.80
2018-10-16T21:48:43.628Z,11.70
2018-10-16T21:51:12.199Z,11.70
2018-10-16T21:53:40.567Z,11.60
2018-10-16T21:56:09.111Z,11.50
2018-10-16T21:58:37.735Z,11.80
2018-10-16T22:01:10.627Z,11.90
2018-10-16T22:03:39.388Z,11.70
2018-10-16T22:06:08.084Z,11.50
2018-10-16T22:08:36.371Z,11.40
2018-10-16T22:11:04.970Z,11.30
2018-10-16T22:13:33.232Z,11.30
2018-10-16T22:16:01.609Z,11.40
2018-10-16T22:18:32.050Z,11.60
2018-10-16T22:21:00.725Z,11.50
2018-10-16T22:23:29.036Z,11.60
2018-10-16T22:25:57.422Z,11.70
2018-10-16T22:28:25.737Z,11.80
2018-10-16T22:30:54.123Z,11.90
2018-10-16T22:33:22.419Z,11.90
2018-10-16T22:35:50.790Z,11.90
2018-10-16T22:38:19.113Z,11.90
2018-10-16T22:40:47.707Z,11.90
2018-10-16T22:43:16.043Z,11.70
2018-10-16T22:45:44.566Z,11.40
2018-10-16T22:48:12.859Z,11.40
2018-10-16T22:50:41.186Z,11.40
2018-10-16T22:53:09.594Z,11.30
2018-10-16T22:55:37.884Z,11.10
2018-10-16T22:58:06.253Z,10.90
2018-10-16T23:00:34.596Z,10.80
2018-10-16T23:03:02.944Z,10.90
2018-10-16T23:05:31.259Z,11.00
2018-10-16T23:07:59.644Z,10.80
2018-10-16T23:10:27.948Z,10.90
2018-10-16T23:13:05.073Z,10.80
2018-10-16T23:15:33.305Z,10.90
2018-10-16T23:18:01.664Z,11.00
2018-10-16T23:20:30.237Z,10.90
2018-10-16T23:23:05.175Z,10.70
2018-10-16T23:25:33.473Z,10.60
2018-10-16T23:28:01.984Z,10.60
2018-10-16T23:30:30.314Z,10.80
2018-10-16T23:32:58.645Z,10.80
2018-10-16T23:35:27.491Z,10.90
2018-10-16T23:37:55.804Z,10.80
2018-10-16T23:40:24.208Z,10.70
2018-10-16T23:42:52.499Z,10.60
2018-10-16T23:45:20.851Z,10.50
2018-10-16T23:47:49.220Z,10.40
2018-10-16T23:50:17.861Z,10.30
2018-10-16T23:52:46.142Z,10.40
2018-10-16T23:55:14.620Z,10.70
2018-10-16T23:57:42.879Z,10.80
